createdAt,value
2023-01-31T00:01:41.977Z,98632.19
2023-01-31T00:04:12.559Z,98639.00
2023-01-31T00:06:44.715Z,98632.94
2023-01-31T00:09:13.512Z,98636.19
2023-01-31T00:11:40.822Z,98647.75
2023-01-31T00:14:10.474Z,98635.00
2023-01-31T00:16:38.504Z,98629.28
2023-01-31T00:19:05.863Z,98622.84
2023-01-31T00:21:33.533Z,98635.00
2023-01-31T00:24:06.665Z,98628.47
2023-01-31T00:26:35.020Z,98636.13
2023-01-31T00:29:05.145Z,98656.78
2023-01-31T00:31:35.119Z,98656.53
2023-01-31T00:34:04.235Z,98654.31
2023-01-31T00:36:34.832Z,98653.94
2023-01-31T00:39:05.448Z,98666.50
2023-01-31T00:41:33.248Z,98662.06
2023-01-31T00:44:00.910Z,98658.75
2023-01-31T00:46:28.710Z,98661.59
2023-01-31T00:48:56.861Z,98673.00
2023-01-31T00:51:26.781Z,98672.66
2023-01-31T00:53:55.102Z,98679.72
2023-01-31T00:56:24.558Z,98681.91
2023-01-31T00:58:53.289Z,98689.19
2023-01-31T01:01:28.041Z,98689.38
2023-01-31T01:03:58.039Z,98686.81
2023-01-31T01:06:26.125Z,98693.72
2023-01-31T01:08:55.343Z,98687.28
2023-01-31T01:11:27.280Z,98684.75
2023-01-31T01:13:55.320Z,98677.66
2023-01-31T01:16:31.662Z,98691.03
2023-01-31T01:19:02.914Z,98695.03
2023-01-31T01:21:39.197Z,98695.47
2023-01-31T01:24:12.666Z,98700.91
2023-01-31T01:26:39.905Z,98697.50
2023-01-31T01:29:07.307Z,98698.13
2023-01-31T01:31:35.144Z,98701.38
2023-01-31T01:34:16.245Z,98699.56
2023-01-31T01:36:46.875Z,98706.28
2023-01-31T01:39:16.607Z,98706.44
2023-01-31T01:41:44.523Z,98707.63
2023-01-31T01:44:52.618Z,98710.66
2023-01-31T01:47:40.152Z,98726.06
2023-01-31T01:50:30.264Z,98727.72
2023-01-31T01:53:21.935Z,98733.97
2023-01-31T01:56:06.896Z,98730.09
2023-01-31T01:58:48.121Z,98728.44
2023-01-31T02:01:17.152Z,98737.00
2023-01-31T02:03:49.150Z,98739.00
2023-01-31T02:06:16.617Z,98747.72
2023-01-31T02:08:44.343Z,98760.06
2023-01-31T02:11:30.984Z,98758.44
2023-01-31T02:14:06.031Z,98757.53
2023-01-31T02:16:35.713Z,98757.34
2023-01-31T02:19:12.831Z,98765.06
2023-01-31T02:22:27.318Z,98770.88
2023-01-31T02:25:25.732Z,98775.16
2023-01-31T02:28:30.100Z,98776.06
2023-01-31T02:31:31.598Z,98778.88
2023-01-31T02:34:33.112Z,98783.59
2023-01-31T02:37:37.807Z,98789.69
2023-01-31T02:40:22.880Z,98789.16
2023-01-31T02:43:19.375Z,98791.94
2023-01-31T02:46:00.950Z,98791.41
2023-01-31T02:48:58.445Z,98804.22
2023-01-31T02:51:35.202Z,98797.75
2023-01-31T02:54:20.164Z,98803.84
2023-01-31T02:56:50.317Z,98818.00
2023-01-31T02:59:26.974Z,98804.22
2023-01-31T03:02:02.954Z,98814.75
2023-01-31T03:04:36.916Z,98810.94
2023-01-31T03:07:17.203Z,98822.94
2023-01-31T03:10:19.594Z,98827.78
2023-01-31T03:13:20.834Z,98839.09
2023-01-31T03:16:37.226Z,98825.28
2023-01-31T03:19:21.198Z,98829.56
2023-01-31T03:22:02.402Z,98827.78
2023-01-31T03:24:31.861Z,98836.47
2023-01-31T03:27:05.207Z,98835.84
2023-01-31T03:29:38.373Z,98852.94
2023-01-31T03:32:38.024Z,98845.66
2023-01-31T03:35:07.060Z,98857.84
2023-01-31T03:37:50.545Z,98858.22
2023-01-31T03:40:38.110Z,98857.13
2023-01-31T03:43:19.780Z,98862.94
2023-01-31T03:45:59.982Z,98861.13
2023-01-31T03:48:36.154Z,98867.31
2023-01-31T03:51:12.385Z,98870.22
2023-01-31T03:53:51.792Z,98872.66
2023-01-31T03:56:34.608Z,98882.38
2023-01-31T03:59:09.508Z,98879.59
2023-01-31T04:01:45.581Z,98879.13
2023-01-31T04:04:21.769Z,98896.56
2023-01-31T04:06:51.109Z,98902.22
2023-01-31T04:09:18.882Z,98907.47
2023-01-31T04:11:49.999Z,98908.53
2023-01-31T04:14:18.564Z,98910.19
2023-01-31T04:16:46.111Z,98913.44
2023-01-31T04:19:13.292Z,98921.72
2023-01-31T04:21:40.592Z,98915.81
2023-01-31T04:24:09.522Z,98917.81
2023-01-31T04:26:37.487Z,98914.53
2023-01-31T04:29:05.063Z,98911.97
2023-01-31T04:31:32.799Z,98903.44
2023-01-31T04:34:00.126Z,98904.97
2023-01-31T04:36:28.406Z,98916.31
2023-01-31T04:38:55.380Z,98916.31
2023-01-31T04:41:22.950Z,98926.50
2023-01-31T04:43:50.087Z,98944.94
2023-01-31T04:46:17.313Z,98944.75
2023-01-31T04:48:44.475Z,98951.22
2023-01-31T04:51:11.781Z,98958.13
2023-01-31T04:53:38.791Z,98957.78
2023-01-31T04:56:06.777Z,98967.16
2023-01-31T04:58:33.854Z,98969.94
2023-01-31T05:01:02.279Z,98969.09
2023-01-31T05:03:29.279Z,98976.03
2023-01-31T05:05:56.538Z,98977.44
2023-01-31T05:08:23.515Z,98976.28
2023-01-31T05:10:57.664Z,98982.25
2023-01-31T05:13:25.319Z,98992.84
2023-01-31T05:15:53.114Z,98998.41
2023-01-31T05:18:20.199Z,99005.66
2023-01-31T05:20:49.991Z,99012.56
2023-01-31T05:23:18.849Z,99002.03
2023-01-31T05:25:50.973Z,99015.84
2023-01-31T05:28:18.728Z,99023.09
2023-01-31T05:30:46.570Z,99022.47
2023-01-31T05:33:13.981Z,99035.97
2023-01-31T05:35:42.364Z,99036.50
2023-01-31T05:38:09.894Z,99046.84
2023-01-31T05:40:37.165Z,99043.25
2023-01-31T05:43:04.524Z,99037.66
2023-01-31T05:45:32.648Z,99045.91
2023-01-31T05:47:59.884Z,99054.13
2023-01-31T05:50:27.257Z,99053.66
2023-01-31T05:53:03.240Z,99053.81
2023-01-31T05:55:31.242Z,99055.75
2023-01-31T05:58:01.264Z,99064.13
2023-01-31T06:00:29.635Z,99059.50
2023-01-31T06:03:00.236Z,99059.03
2023-01-31T06:05:28.537Z,99069.91
2023-01-31T06:07:55.537Z,99076.84
2023-01-31T06:10:23.339Z,99076.84
2023-01-31T06:12:50.355Z,99077.34
2023-01-31T06:15:18.530Z,99078.81
2023-01-31T06:17:47.205Z,99078.81
2023-01-31T06:20:14.590Z,99095.78
2023-01-31T06:22:41.632Z,99094.13
2023-01-31T06:25:09.614Z,99106.13
2023-01-31T06:27:36.712Z,99106.13
2023-01-31T06:30:05.428Z,99109.44
2023-01-31T06:32:32.839Z,99115.38
2023-01-31T06:35:00.174Z,99128.88
2023-01-31T06:37:28.182Z,99126.22
2023-01-31T06:39:55.634Z,99126.88
2023-01-31T06:42:22.751Z,99129.97
2023-01-31T06:44:49.992Z,99124.38
2023-01-31T06:47:17.127Z,99143.66
2023-01-31T06:49:44.338Z,99140.03
2023-01-31T06:52:14.074Z,99139.56
2023-01-31T06:54:42.220Z,99152.06
2023-01-31T06:57:09.193Z,99155.00
2023-01-31T06:59:36.475Z,99163.91
2023-01-31T07:02:06.411Z,99172.97
2023-01-31T07:04:33.963Z,99175.25
2023-01-31T07:07:00.921Z,99174.59
2023-01-31T07:09:28.449Z,99183.81
2023-01-31T07:11:55.569Z,99185.78
2023-01-31T07:14:22.892Z,99196.66
2023-01-31T07:16:49.956Z,99195.50
2023-01-31T07:19:17.230Z,99201.25
2023-01-31T07:21:44.683Z,99209.16
2023-01-31T07:24:12.034Z,99216.22
2023-01-31T07:26:39.026Z,99218.69
2023-01-31T07:29:06.395Z,99217.38
2023-01-31T07:31:33.638Z,99230.38
2023-01-31T07:34:06.368Z,99224.94
2023-01-31T07:36:35.627Z,99221.63
2023-01-31T07:39:06.253Z,99228.56
2023-01-31T07:41:33.367Z,99223.59
2023-01-31T07:44:10.548Z,99227.19
2023-01-31T07:46:38.063Z,99235.75
2023-01-31T07:49:05.399Z,99226.84
2023-01-31T07:51:33.230Z,99238.34
2023-01-31T07:54:00.495Z,99235.91
2023-01-31T07:56:29.607Z,99231.44
2023-01-31T07:58:56.862Z,99238.34
2023-01-31T08:01:44.843Z,99236.69
2023-01-31T08:04:21.483Z,99244.56
2023-01-31T08:06:55.449Z,99245.88
2023-01-31T08:09:25.116Z,99245.53
2023-01-31T08:11:52.264Z,99249.16
2023-01-31T08:14:25.235Z,99263.00
2023-01-31T08:16:53.151Z,99256.88
2023-01-31T08:19:20.890Z,99259.00
2023-01-31T08:21:48.359Z,99257.38
2023-01-31T08:24:15.802Z,99266.41
2023-01-31T08:26:43.632Z,99266.25
2023-01-31T08:29:11.134Z,99266.25
2023-01-31T08:31:41.140Z,99276.16
2023-01-31T08:34:09.538Z,99278.25
2023-01-31T08:36:37.260Z,99287.66
2023-01-31T08:39:05.771Z,99285.47
2023-01-31T08:41:35.266Z,99292.22
2023-01-31T08:44:05.315Z,99288.25
2023-01-31T08:46:36.113Z,99298.44
2023-01-31T08:49:07.195Z,99293.16
2023-01-31T08:51:34.471Z,99291.19
2023-01-31T08:54:03.436Z,99301.03
2023-01-31T08:56:30.603Z,99302.31
2023-01-31T08:58:58.472Z,99302.81
2023-01-31T09:01:26.069Z,99304.47
2023-01-31T09:03:57.571Z,99303.66
2023-01-31T09:06:30.256Z,99306.59
2023-01-31T09:08:58.748Z,99300.59
2023-01-31T09:11:30.345Z,99301.41
2023-01-31T09:13:58.039Z,99310.81
2023-01-31T09:16:25.225Z,99311.16
2023-01-31T09:18:54.057Z,99316.78
2023-01-31T09:21:22.747Z,99304.59
2023-01-31T09:23:57.357Z,99306.25
2023-01-31T09:26:25.139Z,99307.88
2023-01-31T09:28:52.455Z,99308.34
2023-01-31T09:31:21.435Z,99312.09
2023-01-31T09:33:49.047Z,99311.28
2023-01-31T09:36:21.628Z,99304.47
2023-01-31T09:38:56.470Z,99304.63
2023-01-31T09:41:45.873Z,99306.19
2023-01-31T09:44:29.800Z,99305.84
2023-01-31T09:47:22.468Z,99314.34
2023-01-31T09:49:54.392Z,99310.69
2023-01-31T09:52:22.711Z,99314.81
2023-01-31T09:54:50.261Z,99315.97
2023-01-31T09:58:23.284Z,99318.09
2023-01-31T10:01:24.950Z,99303.91
2023-01-31T10:04:21.309Z,99308.50
2023-01-31T10:07:04.747Z,99310.59
2023-01-31T10:09:43.409Z,99315.63
2023-01-31T10:12:28.406Z,99311.28
2023-01-31T10:15:06.674Z,99315.13
2023-01-31T10:17:49.916Z,99308.41
2023-01-31T10:20:37.722Z,99314.59
2023-01-31T10:23:18.223Z,99317.53
2023-01-31T10:26:10.639Z,99315.22
2023-01-31T10:28:46.334Z,99316.25
2023-01-31T10:31:32.141Z,99304.84
2023-01-31T10:34:14.867Z,99319.88
2023-01-31T10:36:57.231Z,99306.03
2023-01-31T10:39:33.094Z,99301.50
2023-01-31T10:42:26.629Z,99301.50
2023-01-31T10:45:17.694Z,99309.66
2023-01-31T10:48:04.542Z,99309.94
2023-01-31T10:50:39.729Z,99315.50
2023-01-31T10:54:05.887Z,99316.25
2023-01-31T10:56:41.797Z,99305.41
2023-01-31T10:59:18.719Z,99311.41
2023-01-31T11:01:46.359Z,99313.91
2023-01-31T11:04:30.433Z,99312.81
2023-01-31T11:07:01.137Z,99304.69
2023-01-31T11:09:34.042Z,99307.16
2023-01-31T11:12:05.062Z,99300.22
2023-01-31T11:14:32.299Z,99301.13
2023-01-31T11:17:14.930Z,99315.44
2023-01-31T11:19:54.094Z,99315.00
2023-01-31T11:22:33.904Z,99312.88
2023-01-31T11:25:04.807Z,99309.44
2023-01-31T11:27:44.146Z,99300.41
2023-01-31T11:30:27.146Z,99306.13
2023-01-31T11:32:55.067Z,99307.31
2023-01-31T11:35:29.593Z,99309.44
2023-01-31T11:38:01.159Z,99323.94
2023-01-31T11:40:53.746Z,99313.97
2023-01-31T11:43:21.024Z,99315.28
2023-01-31T11:45:59.158Z,99307.97
2023-01-31T11:48:42.154Z,99314.06
2023-01-31T11:51:21.842Z,99309.53
2023-01-31T11:53:51.491Z,99298.03
2023-01-31T11:56:27.562Z,99299.66
2023-01-31T11:59:02.471Z,99301.94
2023-01-31T12:01:30.549Z,99298.94
2023-01-31T12:04:05.330Z,99295.28
2023-01-31T12:06:40.252Z,99289.91
2023-01-31T12:09:24.476Z,99289.84
2023-01-31T12:11:56.214Z,99290.66
2023-01-31T12:14:25.235Z,99289.19
2023-01-31T12:16:56.482Z,99274.88
2023-01-31T12:20:27.973Z,99277.06
2023-01-31T12:23:22.625Z,99267.44
2023-01-31T12:26:15.254Z,99264.44
2023-01-31T12:28:59.423Z,99263.25
2023-01-31T12:32:00.208Z,99256.63
2023-01-31T12:35:00.823Z,99252.06
2023-01-31T12:38:16.457Z,99253.56
2023-01-31T12:41:14.731Z,99255.59
2023-01-31T12:44:16.458Z,99250.81
2023-01-31T12:47:10.971Z,99248.53
2023-01-31T12:50:11.829Z,99255.91
2023-01-31T12:53:20.544Z,99261.41
2023-01-31T12:55:56.029Z,99266.03
2023-01-31T12:59:15.004Z,99261.13
2023-01-31T13:02:03.453Z,99257.47
2023-01-31T13:04:51.736Z,99252.53
2023-01-31T13:07:47.614Z,99257.34
2023-01-31T13:10:37.900Z,99248.88
2023-01-31T13:13:17.063Z,99252.88
2023-01-31T13:16:02.380Z,99244.94
2023-01-31T13:18:34.862Z,99248.22
2023-01-31T13:21:07.367Z,99244.22
2023-01-31T13:23:45.169Z,99247.13
2023-01-31T13:26:23.059Z,99241.38
2023-01-31T13:29:19.469Z,99237.63
2023-01-31T13:32:03.419Z,99241.31
2023-01-31T13:35:03.052Z,99235.66
2023-01-31T13:37:38.196Z,99223.69
2023-01-31T13:40:31.706Z,99222.28
2023-01-31T13:43:08.490Z,99226.84
2023-01-31T13:45:52.705Z,99226.47
2023-01-31T13:48:52.923Z,99224.81
2023-01-31T13:51:48.638Z,99221.19
2023-01-31T13:54:40.739Z,99222.81
2023-01-31T13:57:22.858Z,99222.44
2023-01-31T14:00:50.992Z,99215.81
2023-01-31T14:03:21.119Z,99225.59
2023-01-31T14:06:02.303Z,99229.97
2023-01-31T14:08:58.906Z,99227.19
2023-01-31T14:11:28.902Z,99230.91
2023-01-31T14:14:37.684Z,99222.56
2023-01-31T14:17:34.896Z,99226.38
2023-01-31T14:20:24.067Z,99218.66
2023-01-31T14:23:47.158Z,99209.53
2023-01-31T14:26:42.670Z,99226.66
2023-01-31T14:29:26.245Z,99223.09
2023-01-31T14:31:56.538Z,99225.84
2023-01-31T14:34:32.647Z,99229.47
2023-01-31T14:37:36.284Z,99226.84
2023-01-31T14:40:32.150Z,99227.50
2023-01-31T14:43:45.523Z,99226.56
2023-01-31T14:46:12.638Z,99217.63
2023-01-31T14:49:09.618Z,99221.53
2023-01-31T14:52:18.331Z,99219.66
2023-01-31T14:54:59.635Z,99216.00
2023-01-31T14:57:41.776Z,99214.38
2023-01-31T15:00:28.676Z,99209.09
2023-01-31T15:03:25.671Z,99210.06
2023-01-31T15:06:05.825Z,99213.09
2023-01-31T15:08:44.374Z,99213.63
2023-01-31T15:11:40.653Z,99204.91
2023-01-31T15:14:38.837Z,99201.59
2023-01-31T15:17:40.412Z,99200.53
2023-01-31T15:20:20.523Z,99193.59
2023-01-31T15:22:50.924Z,99190.06
2023-01-31T15:25:32.623Z,99206.38
2023-01-31T15:28:03.718Z,99195.13
2023-01-31T15:30:35.205Z,99202.78
2023-01-31T15:33:26.898Z,99203.97
2023-01-31T15:36:23.071Z,99194.88
2023-01-31T15:39:02.760Z,99184.69
2023-01-31T15:41:40.359Z,99199.25
2023-01-31T15:44:25.463Z,99188.41
2023-01-31T15:47:03.411Z,99189.41
2023-01-31T15:49:42.041Z,99194.69
2023-01-31T15:52:15.720Z,99183.66
2023-01-31T15:55:05.075Z,99181.28
2023-01-31T15:57:46.402Z,99181.94
2023-01-31T16:00:31.356Z,99175.03
2023-01-31T16:03:02.863Z,99171.72
2023-01-31T16:05:39.478Z,99164.34
2023-01-31T16:08:29.218Z,99168.63
2023-01-31T16:10:58.370Z,99166.06
2023-01-31T16:13:26.947Z,99160.78
2023-01-31T16:15:54.558Z,99157.84
2023-01-31T16:18:21.882Z,99163.03
2023-01-31T16:20:53.537Z,99160.22
2023-01-31T16:23:29.630Z,99161.22
2023-01-31T16:26:13.459Z,99154.84
2023-01-31T16:28:48.387Z,99162.22
2023-01-31T16:31:21.757Z,99158.59
2023-01-31T16:34:04.321Z,99156.31
2023-01-31T16:36:54.664Z,99159.38
2023-01-31T16:39:44.439Z,99160.56
2023-01-31T16:42:25.948Z,99163.31
2023-01-31T16:44:53.276Z,99157.28
2023-01-31T16:47:39.388Z,99154.50
2023-01-31T16:50:32.766Z,99156.72
2023-01-31T16:53:27.997Z,99156.38
2023-01-31T16:56:13.294Z,99155.19
2023-01-31T16:58:52.508Z,99154.00
2023-01-31T17:01:34.434Z,99152.00
2023-01-31T17:04:15.501Z,99148.75
2023-01-31T17:06:48.501Z,99141.47
2023-01-31T17:09:22.181Z,99137.47
2023-01-31T17:11:49.621Z,99135.81
2023-01-31T17:14:16.874Z,99130.56
2023-01-31T17:16:43.998Z,99126.91
2023-01-31T17:19:12.232Z,99133.81
2023-01-31T17:21:42.518Z,99130.56
2023-01-31T17:24:17.685Z,99131.72
2023-01-31T17:26:45.014Z,99125.63
2023-01-31T17:29:12.504Z,99115.69
2023-01-31T17:31:40.992Z,99135.81
2023-01-31T17:34:16.232Z,99132.56
2023-01-31T17:36:46.357Z,99126.09
2023-01-31T17:39:13.777Z,99125.75
2023-01-31T17:41:41.367Z,99121.16
2023-01-31T17:44:14.980Z,99119.44
2023-01-31T17:46:43.281Z,99116.16
2023-01-31T17:49:11.005Z,99127.06
2023-01-31T17:51:38.249Z,99127.41
2023-01-31T17:54:05.673Z,99129.75
2023-01-31T17:56:32.787Z,99131.59
2023-01-31T17:59:00.647Z,99128.78
2023-01-31T18:01:28.263Z,99129.75
2023-01-31T18:03:56.500Z,99124.50
2023-01-31T18:06:23.646Z,99112.75
2023-01-31T18:08:52.417Z,99108.22
2023-01-31T18:11:20.475Z,99108.75
2023-01-31T18:13:48.164Z,99096.84
2023-01-31T18:16:20.707Z,99098.94
2023-01-31T18:18:48.458Z,99094.47
2023-01-31T18:21:21.876Z,99083.28
2023-01-31T18:23:54.962Z,99083.56
2023-01-31T18:26:24.682Z,99077.00
2023-01-31T18:28:52.683Z,99079.91
2023-01-31T18:31:19.929Z,99077.19
2023-01-31T18:33:47.928Z,99073.38
2023-01-31T18:36:19.194Z,99076.22
2023-01-31T18:38:48.785Z,99074.56
2023-01-31T18:41:20.011Z,99068.44
2023-01-31T18:43:49.513Z,99060.72
2023-01-31T18:46:17.494Z,99063.56
2023-01-31T18:48:45.498Z,99048.53
2023-01-31T18:51:15.353Z,99051.72
2023-01-31T18:53:45.787Z,99047.19
2023-01-31T18:56:17.780Z,99049.09
2023-01-31T18:58:46.635Z,99049.00
2023-01-31T19:01:17.847Z,99047.72
2023-01-31T19:03:47.600Z,99052.34
2023-01-31T19:06:19.456Z,99047.34
2023-01-31T19:08:57.380Z,99046.72
2023-01-31T19:11:28.552Z,99033.88
2023-01-31T19:13:56.878Z,99047.72
2023-01-31T19:16:27.774Z,99024.78
2023-01-31T19:18:56.676Z,99020.81
2023-01-31T19:21:31.100Z,99018.44
2023-01-31T19:24:02.742Z,99014.16
2023-01-31T19:26:32.359Z,99006.16
2023-01-31T19:28:59.881Z,99003.78
2023-01-31T19:31:33.721Z,98999.31
2023-01-31T19:34:04.606Z,98998.06
2023-01-31T19:36:38.993Z,98997.69
2023-01-31T19:39:10.633Z,98987.50
2023-01-31T19:41:39.007Z,98987.16
2023-01-31T19:44:06.302Z,98978.47
2023-01-31T19:46:36.399Z,98969.59
2023-01-31T19:49:04.808Z,98957.03
2023-01-31T19:51:32.856Z,98961.13
2023-01-31T19:54:03.401Z,98947.31
2023-01-31T19:56:32.163Z,98951.56
2023-01-31T19:59:00.540Z,98940.22
2023-01-31T20:01:30.576Z,98940.03
2023-01-31T20:03:58.145Z,98946.94
2023-01-31T20:06:29.497Z,98944.13
2023-01-31T20:09:00.231Z,98933.22
2023-01-31T20:11:32.303Z,98935.66
2023-01-31T20:14:00.181Z,98930.84
2023-01-31T20:16:29.758Z,98930.22
2023-01-31T20:22:51.026Z,98933.91
2023-01-31T20:25:18.535Z,98932.66
2023-01-31T20:27:45.678Z,98926.22
2023-01-31T20:30:13.506Z,98929.28
2023-01-31T20:32:40.687Z,98933.28
2023-01-31T20:35:08.945Z,98928.84
2023-01-31T20:37:36.226Z,98938.41
2023-01-31T20:40:04.079Z,98938.84
2023-01-31T20:42:32.978Z,98928.91
2023-01-31T20:45:00.798Z,98919.66
2023-01-31T20:47:29.509Z,98916.34
2023-01-31T20:49:57.390Z,98915.38
2023-01-31T20:52:24.763Z,98923.28
2023-01-31T20:54:52.379Z,98915.16
2023-01-31T20:57:20.195Z,98915.63
2023-01-31T20:59:47.912Z,98917.44
2023-01-31T21:02:15.042Z,98919.72
2023-01-31T21:04:42.688Z,98920.19
2023-01-31T21:07:10.315Z,98915.91
2023-01-31T21:09:38.167Z,98904.72
2023-01-31T21:12:05.539Z,98897.78
2023-01-31T21:14:32.992Z,98893.53
2023-01-31T21:17:00.114Z,98884.88
2023-01-31T21:19:52.269Z,98879.22
2023-01-31T21:22:19.319Z,98873.31
2023-01-31T21:24:46.676Z,98872.31
2023-01-31T21:27:14.175Z,98882.03
2023-01-31T21:29:41.688Z,98874.78
2023-01-31T21:32:08.784Z,98869.03
2023-01-31T21:34:36.113Z,98877.22
2023-01-31T21:37:03.962Z,98867.03
2023-01-31T21:39:31.407Z,98861.75
2023-01-31T21:42:16.730Z,98868.31
2023-01-31T21:44:46.826Z,98862.63
2023-01-31T21:47:15.656Z,98853.78
2023-01-31T21:49:43.768Z,98867.13
2023-01-31T21:52:10.969Z,98866.91
2023-01-31T21:54:38.314Z,98858.63
2023-01-31T21:57:05.558Z,98864.91
2023-01-31T21:59:33.073Z,98848.44
2023-01-31T22:02:00.513Z,98854.97
2023-01-31T22:04:30.443Z,98853.34
2023-01-31T22:06:57.704Z,98856.97
2023-01-31T22:09:25.126Z,98840.72
2023-01-31T22:11:54.483Z,98842.53
2023-01-31T22:14:22.066Z,98838.25
2023-01-31T22:16:50.182Z,98841.53
2023-01-31T22:19:17.834Z,98838.88
2023-01-31T22:21:45.163Z,98827.53
2023-01-31T22:24:12.696Z,98835.88
2023-01-31T22:26:44.009Z,98834.25
2023-01-31T22:29:15.876Z,98834.69
2023-01-31T22:31:44.956Z,98830.22
2023-01-31T22:34:17.325Z,98833.84
2023-01-31T22:36:44.584Z,98831.22
2023-01-31T22:39:15.938Z,98829.84
2023-01-31T22:41:44.678Z,98819.31
2023-01-31T22:44:12.113Z,98824.19
2023-01-31T22:46:39.286Z,98818.53
2023-01-31T22:49:06.912Z,98819.34
2023-01-31T22:51:34.260Z,98814.91
2023-01-31T22:54:02.550Z,98827.91
2023-01-31T22:56:32.277Z,98825.47
2023-01-31T22:59:03.874Z,98813.25
2023-01-31T23:01:35.779Z,98824.19
2023-01-31T23:04:09.050Z,98819.94
2023-01-31T23:06:37.758Z,98817.28
2023-01-31T23:09:05.801Z,98816.66
2023-01-31T23:11:33.130Z,98825.56
2023-01-31T23:14:00.549Z,98829.78
2023-01-31T23:16:47.051Z,98820.50
2023-01-31T23:19:17.616Z,98829.03
2023-01-31T23:21:45.292Z,98829.84
2023-01-31T23:24:14.725Z,98830.22
2023-01-31T23:26:43.579Z,98809.13
2023-01-31T23:29:12.037Z,98812.38
2023-01-31T23:31:39.242Z,98794.53
2023-01-31T23:34:07.775Z,98791.25
2023-01-31T23:36:35.149Z,98793.72
2023-01-31T23:39:04.872Z,98775.06
2023-01-31T23:41:32.057Z,98771.38
2023-01-31T23:43:59.562Z,98769.41
2023-01-31T23:46:26.701Z,98775.06
2023-01-31T23:48:54.423Z,98778.31
2023-01-31T23:51:21.759Z,98775.47
2023-01-31T23:53:49.051Z,98783.22
2023-01-31T23:56:16.323Z,98789.13
2023-01-31T23:58:44.147Z,98789.38
